createdAt,value
2022-07-28T00:00:44.057Z,100.00
2022-07-28T00:03:11.232Z,100.00
2022-07-28T00:05:37.876Z,100.00
2022-07-28T00:08:05.416Z,100.00
2022-07-28T00:10:32.401Z,100.00
2022-07-28T00:12:59.999Z,100.00
2022-07-28T00:15:27.479Z,100.00
2022-07-28T00:17:54.035Z,100.00
2022-07-28T00:20:21.337Z,100.00
2022-07-28T00:22:47.931Z,100.00
2022-07-28T00:25:15.419Z,100.00
2022-07-28T00:27:42.065Z,100.00
2022-07-28T00:30:10.032Z,100.00
2022-07-28T00:32:37.747Z,100.00
2022-07-28T00:35:05.182Z,100.00
2022-07-28T00:37:34.999Z,100.00
2022-07-28T00:40:01.612Z,100.00
2022-07-28T00:42:28.109Z,100.00
2022-07-28T00:44:54.663Z,100.00
2022-07-28T00:47:21.200Z,100.00
2022-07-28T00:49:48.383Z,100.00
2022-07-28T00:52:17.061Z,100.00
2022-07-28T00:54:44.084Z,100.00
2022-07-28T00:57:10.579Z,100.00
2022-07-28T00:59:37.138Z,100.00
2022-07-28T01:02:05.257Z,100.00
2022-07-28T01:04:31.972Z,100.00
2022-07-28T01:07:15.222Z,100.00
2022-07-28T01:10:12.991Z,100.00
2022-07-28T01:12:55.745Z,100.00
2022-07-28T01:15:36.776Z,100.00
2022-07-28T01:18:11.758Z,100.00
2022-07-28T01:20:54.993Z,100.00
2022-07-28T01:23:27.375Z,100.00
2022-07-28T01:26:31.411Z,100.00
2022-07-28T01:29:35.470Z,100.00
2022-07-28T01:32:23.822Z,100.00
2022-07-28T01:35:05.516Z,100.00
2022-07-28T01:37:33.852Z,100.00
2022-07-28T01:40:05.463Z,100.00
2022-07-28T01:42:37.213Z,100.00
2022-07-28T01:45:04.552Z,100.00
2022-07-28T01:47:33.049Z,100.00
2022-07-28T01:50:03.228Z,100.00
2022-07-28T01:52:31.370Z,100.00
2022-07-28T01:55:00.581Z,100.00
2022-07-28T01:57:30.270Z,100.00
2022-07-28T01:59:57.885Z,100.00
2022-07-28T02:02:27.037Z,100.00
2022-07-28T02:04:57.406Z,100.00
2022-07-28T02:07:26.313Z,100.00
2022-07-28T02:09:54.833Z,100.00
2022-07-28T02:12:23.077Z,100.00
2022-07-28T02:14:50.692Z,100.00
2022-07-28T02:17:20.942Z,100.00
2022-07-28T02:19:49.181Z,100.00
2022-07-28T02:22:17.002Z,100.00
2022-07-28T02:24:45.463Z,100.00
2022-07-28T02:27:19.592Z,100.00
2022-07-28T02:29:51.725Z,100.00
2022-07-28T02:32:29.276Z,100.00
2022-07-28T02:35:02.895Z,100.00
2022-07-28T02:37:37.680Z,100.00
2022-07-28T02:40:08.715Z,100.00
2022-07-28T02:42:36.835Z,100.00
2022-07-28T02:45:06.843Z,100.00
2022-07-28T02:47:40.237Z,100.00
2022-07-28T02:50:08.282Z,100.00
2022-07-28T02:52:35.882Z,100.00
2022-07-28T02:55:03.610Z,100.00
2022-07-28T02:57:31.143Z,100.00
2022-07-28T02:59:58.509Z,100.00
2022-07-28T03:02:25.917Z,100.00
2022-07-28T03:04:59.495Z,100.00
2022-07-28T03:07:34.437Z,100.00
2022-07-28T03:10:00.972Z,100.00
2022-07-28T03:12:27.959Z,100.00
2022-07-28T03:14:55.130Z,100.00
2022-07-28T03:17:22.563Z,100.00
2022-07-28T03:19:49.252Z,100.00
2022-07-28T03:22:16.137Z,100.00
2022-07-28T03:24:46.704Z,100.00
2022-07-28T03:27:31.172Z,100.00
2022-07-28T03:30:15.370Z,100.00
2022-07-28T03:32:47.047Z,100.00
2022-07-28T03:35:14.690Z,100.00
2022-07-28T03:38:00.474Z,100.00
2022-07-28T03:40:29.927Z,100.00
2022-07-28T03:42:57.940Z,100.00
2022-07-28T03:45:24.932Z,100.00
2022-07-28T03:47:56.266Z,100.00
2022-07-28T03:50:24.742Z,100.00
2022-07-28T03:52:52.057Z,100.00
2022-07-28T03:55:18.913Z,100.00
2022-07-28T03:57:46.509Z,100.00
2022-07-28T04:00:15.056Z,100.00
2022-07-28T04:02:44.989Z,100.00
2022-07-28T04:05:13.401Z,100.00
2022-07-28T04:07:41.040Z,100.00
2022-07-28T04:10:09.489Z,100.00
2022-07-28T04:12:47.555Z,100.00
2022-07-28T04:15:14.969Z,100.00
2022-07-28T04:17:42.718Z,100.00
2022-07-28T04:20:10.094Z,100.00
2022-07-28T04:22:37.337Z,100.00
2022-07-28T04:25:04.657Z,100.00
2022-07-28T04:27:31.268Z,100.00
2022-07-28T04:29:57.879Z,100.00
2022-07-28T04:32:24.397Z,100.00
2022-07-28T04:34:50.897Z,100.00
2022-07-28T04:37:17.450Z,100.00
2022-07-28T04:39:44.199Z,100.00
2022-07-28T04:42:11.574Z,100.00
2022-07-28T04:44:42.378Z,100.00
2022-07-28T04:47:09.374Z,100.00
2022-07-28T04:49:35.914Z,100.00
2022-07-28T04:52:03.475Z,100.00
2022-07-28T04:54:30.258Z,100.00
2022-07-28T04:56:56.776Z,100.00
2022-07-28T04:59:23.309Z,100.00
2022-07-28T05:01:51.638Z,100.00
2022-07-28T05:04:18.742Z,100.00
2022-07-28T05:06:45.673Z,100.00
2022-07-28T05:09:12.227Z,100.00
2022-07-28T05:11:39.084Z,100.00
2022-07-28T05:14:05.671Z,100.00
2022-07-28T05:16:32.452Z,100.00
2022-07-28T05:19:00.632Z,100.00
2022-07-28T05:21:27.367Z,100.00
2022-07-28T05:23:53.883Z,100.00
2022-07-28T05:26:20.507Z,100.00
2022-07-28T05:28:47.052Z,100.00
2022-07-28T05:31:14.470Z,100.00
2022-07-28T05:33:41.381Z,100.00
2022-07-28T05:36:08.278Z,100.00
2022-07-28T05:38:34.749Z,100.00
2022-07-28T05:41:01.393Z,100.00
2022-07-28T05:43:27.908Z,100.00
2022-07-28T05:45:54.427Z,100.00
2022-07-28T05:48:22.595Z,100.00
2022-07-28T05:50:50.035Z,100.00
2022-07-28T05:53:17.623Z,100.00
2022-07-28T05:55:57.804Z,100.00
2022-07-28T05:58:27.487Z,100.00
2022-07-28T06:00:54.095Z,100.00
2022-07-28T06:03:20.627Z,100.00
2022-07-28T06:05:59.508Z,100.00
2022-07-28T06:08:34.072Z,100.00
2022-07-28T06:11:09.389Z,100.00
2022-07-28T06:13:36.635Z,100.00
2022-07-28T06:16:12.607Z,100.00
2022-07-28T06:18:39.824Z,100.00
2022-07-28T06:21:06.395Z,100.00
2022-07-28T06:23:32.997Z,100.00
2022-07-28T06:25:59.593Z,100.00
2022-07-28T06:28:26.120Z,100.00
2022-07-28T06:30:52.686Z,100.00
2022-07-28T06:33:19.340Z,100.00
2022-07-28T06:35:51.327Z,100.00
2022-07-28T06:38:20.493Z,100.00
2022-07-28T06:40:47.788Z,100.00
2022-07-28T06:43:14.771Z,98.38
2022-07-28T06:45:41.427Z,95.69
2022-07-28T06:48:08.846Z,95.34
2022-07-28T06:50:39.228Z,94.27
2022-07-28T06:53:06.106Z,92.12
2022-07-28T06:55:35.670Z,92.31
2022-07-28T06:58:05.541Z,91.66
2022-07-28T07:00:32.319Z,92.00
2022-07-28T07:03:00.620Z,91.10
2022-07-28T07:05:30.001Z,88.48
2022-07-28T07:07:56.766Z,84.57
2022-07-28T07:10:23.629Z,81.73
2022-07-28T07:12:50.433Z,82.14
2022-07-28T07:15:16.939Z,80.45
2022-07-28T07:17:43.777Z,80.55
2022-07-28T07:20:13.406Z,81.14
2022-07-28T07:22:44.710Z,81.36
2022-07-28T07:25:16.694Z,80.79
2022-07-28T07:27:43.681Z,81.86
2022-07-28T07:30:11.412Z,80.20
2022-07-28T07:32:38.180Z,79.17
2022-07-28T07:35:06.189Z,78.31
2022-07-28T07:37:32.890Z,77.76
2022-07-28T07:40:04.894Z,77.45
2022-07-28T07:42:31.610Z,77.40
2022-07-28T07:44:58.153Z,76.48
2022-07-28T07:47:24.720Z,77.05
2022-07-28T07:49:51.725Z,75.12
2022-07-28T07:52:18.333Z,74.48
2022-07-28T07:54:45.563Z,76.64
2022-07-28T07:57:12.212Z,76.29
2022-07-28T07:59:38.707Z,75.27
2022-07-28T08:02:05.837Z,74.22
2022-07-28T08:04:37.500Z,75.16
2022-07-28T08:07:05.539Z,73.46
2022-07-28T08:09:32.671Z,71.93
2022-07-28T08:11:59.202Z,73.15
2022-07-28T08:14:25.860Z,71.75
2022-07-28T08:16:52.719Z,71.08
2022-07-28T08:19:21.591Z,69.94
2022-07-28T08:21:48.564Z,68.61
2022-07-28T08:24:27.641Z,66.95
2022-07-28T08:26:59.743Z,68.81
2022-07-28T08:29:26.381Z,69.88
2022-07-28T08:31:52.967Z,67.89
2022-07-28T08:34:31.083Z,68.44
2022-07-28T08:37:02.704Z,70.83
2022-07-28T08:39:30.408Z,70.46
2022-07-28T08:42:07.116Z,70.03
2022-07-28T08:44:41.186Z,71.47
2022-07-28T08:47:11.178Z,71.62
2022-07-28T08:49:41.964Z,70.24
2022-07-28T08:52:12.619Z,72.48
2022-07-28T08:54:46.144Z,69.13
2022-07-28T08:57:28.237Z,69.24
2022-07-28T08:59:54.962Z,69.84
2022-07-28T09:02:22.475Z,69.04
2022-07-28T09:04:49.484Z,66.32
2022-07-28T09:07:16.554Z,68.33
2022-07-28T09:09:43.841Z,67.57
2022-07-28T09:12:10.449Z,65.20
2022-07-28T09:14:37.062Z,65.34
2022-07-28T09:17:05.324Z,67.43
2022-07-28T09:19:34.409Z,64.98
2022-07-28T09:22:02.440Z,64.76
2022-07-28T09:24:36.311Z,66.44
2022-07-28T09:27:11.255Z,62.55
2022-07-28T09:29:39.832Z,61.92
2022-07-28T09:32:07.620Z,64.54
2022-07-28T09:34:48.647Z,64.68
2022-07-28T09:37:27.420Z,63.22
2022-07-28T09:40:00.307Z,62.16
2022-07-28T09:42:44.533Z,62.04
2022-07-28T09:45:26.511Z,61.91
2022-07-28T09:48:14.350Z,62.08
2022-07-28T09:50:42.458Z,61.46
2022-07-28T09:53:23.885Z,62.44
2022-07-28T09:56:03.174Z,61.23
2022-07-28T09:58:30.646Z,58.66
2022-07-28T10:01:04.316Z,60.00
2022-07-28T10:03:31.177Z,57.60
2022-07-28T10:05:59.157Z,56.78
2022-07-28T10:08:44.059Z,60.68
2022-07-28T10:11:12.388Z,61.35
2022-07-28T10:14:13.712Z,59.23
2022-07-28T10:16:44.417Z,59.91
2022-07-28T10:19:11.149Z,61.49
2022-07-28T10:21:46.454Z,62.38
2022-07-28T10:24:23.073Z,60.00
2022-07-28T10:26:52.563Z,59.76
2022-07-28T10:29:21.792Z,58.16
2022-07-28T10:31:53.619Z,59.38
2022-07-28T10:35:00.041Z,56.64
2022-07-28T10:37:28.418Z,54.20
2022-07-28T10:40:07.786Z,56.79
2022-07-28T10:42:36.635Z,56.48
2022-07-28T10:45:04.446Z,57.24
2022-07-28T10:47:35.861Z,56.14
2022-07-28T10:50:04.332Z,57.06
2022-07-28T10:52:50.030Z,56.12
2022-07-28T10:55:21.670Z,55.97
2022-07-28T10:58:27.526Z,57.12
2022-07-28T11:00:58.424Z,58.25
2022-07-28T11:03:40.537Z,57.67
2022-07-28T11:06:26.369Z,57.52
2022-07-28T11:08:55.528Z,56.73
2022-07-28T11:11:46.744Z,57.94
2022-07-28T11:14:30.777Z,57.32
2022-07-28T11:17:00.109Z,57.02
2022-07-28T11:19:39.990Z,55.67
2022-07-28T11:22:19.573Z,57.84
2022-07-28T11:24:58.047Z,58.23
2022-07-28T11:27:40.291Z,58.17
2022-07-28T11:30:11.720Z,57.66
2022-07-28T11:32:50.077Z,59.48
2022-07-28T11:35:39.774Z,58.47
2022-07-28T11:38:07.906Z,58.09
2022-07-28T11:40:44.714Z,57.63
2022-07-28T11:43:37.579Z,58.91
2022-07-28T11:46:09.463Z,57.22
2022-07-28T11:48:46.961Z,58.21
2022-07-28T11:51:14.602Z,58.56
2022-07-28T11:53:49.433Z,59.87
2022-07-28T11:56:23.854Z,58.77
2022-07-28T11:59:02.003Z,59.42
2022-07-28T12:01:32.023Z,57.95
2022-07-28T12:04:00.092Z,55.15
2022-07-28T12:06:37.727Z,55.08
2022-07-28T12:09:06.433Z,58.18
2022-07-28T12:11:37.899Z,57.19
2022-07-28T12:14:12.521Z,58.13
2022-07-28T12:16:41.637Z,56.69
2022-07-28T12:19:10.100Z,55.43
2022-07-28T12:21:46.262Z,55.88
2022-07-28T12:24:16.825Z,55.32
2022-07-28T12:26:49.713Z,54.23
2022-07-28T12:29:17.425Z,55.57
2022-07-28T12:32:02.060Z,54.67
2022-07-28T12:34:31.247Z,53.96
2022-07-28T12:37:02.271Z,55.25
2022-07-28T12:39:30.934Z,54.94
2022-07-28T12:42:05.698Z,55.69
2022-07-28T12:44:39.733Z,54.67
2022-07-28T12:47:08.919Z,52.17
2022-07-28T12:49:37.046Z,52.63
2022-07-28T12:52:23.767Z,52.79
2022-07-28T12:54:56.202Z,52.25
2022-07-28T12:57:49.444Z,50.74
2022-07-28T13:00:19.518Z,50.66
2022-07-28T13:02:47.285Z,54.05
2022-07-28T13:05:54.423Z,50.36
2022-07-28T13:08:22.348Z,54.46
2022-07-28T13:10:51.674Z,51.38
2022-07-28T13:13:22.321Z,52.21
2022-07-28T13:16:20.927Z,52.76
2022-07-28T13:18:53.560Z,50.86
2022-07-28T13:21:58.119Z,51.83
2022-07-28T13:24:27.986Z,51.63
2022-07-28T13:26:54.852Z,54.78
2022-07-28T13:29:22.416Z,53.36
2022-07-28T13:31:49.392Z,54.31
2022-07-28T13:34:16.691Z,55.35
2022-07-28T13:36:43.507Z,54.39
2022-07-28T13:39:14.271Z,52.05
2022-07-28T13:41:56.502Z,52.47
2022-07-28T13:44:25.092Z,52.89
2022-07-28T13:46:51.721Z,53.21
2022-07-28T13:49:21.232Z,52.69
2022-07-28T13:51:48.927Z,52.54
2022-07-28T13:54:18.248Z,52.24
2022-07-28T13:56:45.312Z,53.45
2022-07-28T13:59:13.712Z,53.68
2022-07-28T14:01:41.438Z,53.62
2022-07-28T14:04:14.640Z,53.23
2022-07-28T14:06:45.021Z,54.22
2022-07-28T14:09:12.979Z,54.36
2022-07-28T14:11:49.901Z,54.21
2022-07-28T14:14:24.065Z,54.38
2022-07-28T14:16:54.202Z,53.82
2022-07-28T14:19:23.651Z,56.75
2022-07-28T14:22:10.469Z,55.38
2022-07-28T14:24:39.711Z,55.14
2022-07-28T14:27:06.208Z,54.14
2022-07-28T14:29:32.916Z,53.92
2022-07-28T14:31:59.537Z,54.17
2022-07-28T14:34:26.234Z,52.14
2022-07-28T14:36:53.227Z,52.45
2022-07-28T14:39:19.878Z,54.40
2022-07-28T14:41:46.387Z,54.02
2022-07-28T14:44:24.712Z,52.56
2022-07-28T14:46:51.774Z,53.53
2022-07-28T14:49:18.945Z,52.17
2022-07-28T14:51:45.996Z,52.34
2022-07-28T14:54:12.875Z,51.08
2022-07-28T14:56:39.692Z,53.48
2022-07-28T14:59:06.378Z,53.15
2022-07-28T15:01:35.984Z,53.98
2022-07-28T15:04:03.136Z,53.05
2022-07-28T15:06:29.741Z,54.29
2022-07-28T15:08:57.784Z,55.03
2022-07-28T15:11:24.601Z,55.67
2022-07-28T15:13:51.138Z,54.73
2022-07-28T15:16:17.771Z,55.62
2022-07-28T15:18:45.087Z,56.99
2022-07-28T15:21:16.495Z,56.34
2022-07-28T15:23:43.579Z,54.88
2022-07-28T15:26:10.488Z,59.35
2022-07-28T15:28:37.437Z,57.33
2022-07-28T15:31:05.396Z,53.79
2022-07-28T15:33:45.341Z,54.92
2022-07-28T15:36:17.423Z,53.61
2022-07-28T15:38:47.458Z,52.46
2022-07-28T15:41:16.235Z,51.03
2022-07-28T15:43:43.702Z,51.64
2022-07-28T15:46:16.061Z,50.25
2022-07-28T15:48:44.564Z,49.87
2022-07-28T15:51:11.541Z,50.34
2022-07-28T15:53:38.757Z,50.67
2022-07-28T15:56:05.801Z,49.35
2022-07-28T15:58:32.422Z,49.91
2022-07-28T16:01:01.120Z,52.39
2022-07-28T16:03:29.582Z,52.15
2022-07-28T16:05:56.289Z,50.43
2022-07-28T16:08:23.515Z,51.54
2022-07-28T16:10:52.466Z,52.70
2022-07-28T16:13:35.985Z,52.20
2022-07-28T16:16:04.540Z,52.65
2022-07-28T16:18:32.033Z,51.55
2022-07-28T16:20:58.637Z,52.67
2022-07-28T16:23:25.181Z,53.06
2022-07-28T16:25:51.798Z,53.82
2022-07-28T16:28:18.305Z,55.69
2022-07-28T16:30:45.086Z,55.26
2022-07-28T16:33:11.637Z,56.01
2022-07-28T16:35:38.341Z,56.62
2022-07-28T16:38:06.398Z,58.33
2022-07-28T16:40:33.736Z,59.38
2022-07-28T16:43:06.143Z,58.03
2022-07-28T16:45:36.881Z,58.12
2022-07-28T16:48:04.094Z,58.34
2022-07-28T16:50:32.538Z,56.93
2022-07-28T16:53:00.031Z,56.33
2022-07-28T16:55:27.125Z,54.40
2022-07-28T16:57:54.240Z,53.57
2022-07-28T17:00:21.547Z,54.96
2022-07-28T17:02:48.094Z,54.31
2022-07-28T17:05:14.618Z,54.67
2022-07-28T17:07:45.876Z,54.37
2022-07-28T17:10:14.088Z,53.96
2022-07-28T17:12:40.811Z,53.58
2022-07-28T17:15:07.956Z,54.65
2022-07-28T17:17:49.138Z,55.89
2022-07-28T17:20:16.702Z,53.70
2022-07-28T17:22:46.647Z,54.88
2022-07-28T17:25:52.391Z,53.88
2022-07-28T17:28:00.371Z,53.85
2022-07-28T17:30:29.699Z,56.75
2022-07-28T17:32:58.926Z,55.06
2022-07-28T17:35:34.351Z,54.39
2022-07-28T17:38:03.433Z,54.08
2022-07-28T17:40:30.164Z,55.56
2022-07-28T17:42:56.734Z,54.68
2022-07-28T17:45:24.374Z,55.01
2022-07-28T17:47:51.159Z,54.98
2022-07-28T17:50:17.873Z,56.05
2022-07-28T17:52:45.327Z,54.84
2022-07-28T17:55:34.509Z,55.42
2022-07-28T17:58:19.285Z,56.89
2022-07-28T18:00:51.559Z,57.36
2022-07-28T18:03:18.342Z,58.74
2022-07-28T18:05:45.077Z,58.76
2022-07-28T18:08:12.553Z,58.32
2022-07-28T18:10:40.010Z,57.53
2022-07-28T18:13:07.512Z,57.86
2022-07-28T18:15:35.831Z,57.54
2022-07-28T18:18:03.773Z,57.92
2022-07-28T18:20:30.919Z,57.86
2022-07-28T18:22:58.149Z,59.75
2022-07-28T18:25:25.990Z,59.51
2022-07-28T18:27:53.807Z,61.20
2022-07-28T18:30:20.462Z,60.90
2022-07-28T18:32:47.310Z,60.58
2022-07-28T18:35:14.405Z,62.41
2022-07-28T18:37:45.488Z,61.42
2022-07-28T18:40:13.790Z,61.64
2022-07-28T18:42:41.685Z,63.33
2022-07-28T18:45:09.023Z,63.55
2022-07-28T18:47:37.542Z,63.16
2022-07-28T18:50:30.660Z,63.34
2022-07-28T18:52:58.611Z,63.48
2022-07-28T18:55:25.701Z,63.52
2022-07-28T18:57:52.305Z,64.01
2022-07-28T19:00:18.786Z,64.17
2022-07-28T19:02:45.500Z,65.12
2022-07-28T19:05:12.139Z,65.86
2022-07-28T19:07:38.944Z,66.35
2022-07-28T19:10:06.712Z,67.17
2022-07-28T19:12:34.243Z,67.28
2022-07-28T19:15:01.591Z,68.79
2022-07-28T19:17:28.727Z,69.17
2022-07-28T19:19:56.373Z,69.68
2022-07-28T19:22:24.019Z,69.13
2022-07-28T19:24:51.978Z,68.56
2022-07-28T19:27:20.239Z,69.57
2022-07-28T19:29:47.044Z,69.87
2022-07-28T19:32:13.842Z,69.41
2022-07-28T19:34:41.823Z,70.06
2022-07-28T19:37:08.509Z,70.47
2022-07-28T19:39:45.938Z,71.40
2022-07-28T19:42:13.110Z,71.56
2022-07-28T19:44:41.377Z,71.12
2022-07-28T19:47:08.786Z,72.37
2022-07-28T19:49:35.314Z,72.63
2022-07-28T19:52:02.257Z,72.71
2022-07-28T19:54:29.359Z,74.70
2022-07-28T19:56:56.009Z,73.93
2022-07-28T19:59:22.732Z,74.07
2022-07-28T20:01:50.550Z,74.59
2022-07-28T20:04:17.782Z,75.62
2022-07-28T20:06:44.560Z,76.09
2022-07-28T20:09:11.510Z,75.92
2022-07-28T20:11:39.021Z,76.14
2022-07-28T20:14:05.619Z,76.15
2022-07-28T20:16:32.784Z,76.78
2022-07-28T20:18:59.659Z,77.10
2022-07-28T20:21:26.853Z,76.89
2022-07-28T20:23:57.273Z,77.36
2022-07-28T20:26:26.138Z,76.80
2022-07-28T20:28:58.577Z,77.01
2022-07-28T20:31:25.700Z,77.31
2022-07-28T20:33:52.906Z,78.49
2022-07-28T20:36:19.573Z,78.91
2022-07-28T20:38:46.095Z,79.46
2022-07-28T20:41:13.415Z,80.70
2022-07-28T20:43:40.652Z,78.90
2022-07-28T20:46:07.916Z,79.23
2022-07-28T20:48:35.069Z,79.28
2022-07-28T20:51:01.811Z,81.11
2022-07-28T20:53:28.395Z,80.65
2022-07-28T20:55:54.962Z,81.35
2022-07-28T20:58:21.500Z,81.49
2022-07-28T21:00:50.594Z,82.04
2022-07-28T21:03:17.187Z,81.77
2022-07-28T21:05:44.358Z,83.67
2022-07-28T21:08:16.280Z,83.37
2022-07-28T21:10:44.684Z,84.22
2022-07-28T21:13:11.255Z,83.90
2022-07-28T21:15:37.815Z,83.69
2022-07-28T21:18:05.307Z,85.99
2022-07-28T21:20:32.079Z,88.25
2022-07-28T21:22:58.659Z,89.15
2022-07-28T21:25:26.071Z,89.74
2022-07-28T21:28:11.540Z,90.75
2022-07-28T21:30:38.549Z,88.26
2022-07-28T21:33:05.276Z,88.68
2022-07-28T21:35:32.243Z,89.44
2022-07-28T21:37:58.910Z,88.00
2022-07-28T21:40:26.337Z,89.75
2022-07-28T21:42:52.891Z,91.49
2022-07-28T21:45:19.826Z,92.20
2022-07-28T21:47:46.928Z,93.42
2022-07-28T21:50:14.122Z,93.89
2022-07-28T21:52:40.682Z,94.08
2022-07-28T21:55:08.918Z,95.47
2022-07-28T21:57:36.308Z,96.39
2022-07-28T22:00:06.557Z,97.22
2022-07-28T22:02:33.326Z,98.03
2022-07-28T22:05:00.728Z,98.08
2022-07-28T22:07:27.342Z,94.94
2022-07-28T22:09:53.845Z,95.79
2022-07-28T22:12:20.868Z,96.76
2022-07-28T22:14:47.383Z,96.60
2022-07-28T22:17:13.912Z,94.56
2022-07-28T22:19:40.481Z,95.69
2022-07-28T22:22:07.035Z,94.48
2022-07-28T22:24:33.583Z,95.73
2022-07-28T22:27:00.210Z,96.89
2022-07-28T22:29:27.991Z,97.55
2022-07-28T22:31:59.601Z,97.88
2022-07-28T22:34:26.582Z,97.31
2022-07-28T22:36:53.095Z,96.55
2022-07-28T22:39:19.602Z,96.13
2022-07-28T22:41:47.006Z,95.34
2022-07-28T22:44:13.810Z,96.03
2022-07-28T22:46:41.530Z,98.00
2022-07-28T22:49:08.174Z,98.99
2022-07-28T22:51:34.740Z,100.00
2022-07-28T22:54:01.343Z,100.00
2022-07-28T22:56:27.857Z,99.96
2022-07-28T22:59:02.223Z,100.00
2022-07-28T23:01:28.808Z,100.00
2022-07-28T23:03:55.429Z,100.00
2022-07-28T23:06:22.090Z,100.00
2022-07-28T23:08:48.617Z,100.00
2022-07-28T23:11:15.173Z,100.00
2022-07-28T23:13:41.792Z,100.00
2022-07-28T23:16:13.059Z,100.00
2022-07-28T23:18:43.671Z,100.00
2022-07-28T23:21:11.154Z,100.00
2022-07-28T23:23:38.614Z,100.00
2022-07-28T23:26:05.755Z,100.00
2022-07-28T23:28:36.374Z,100.00
2022-07-28T23:31:04.460Z,100.00
2022-07-28T23:33:55.561Z,100.00
2022-07-28T23:36:26.630Z,100.00
2022-07-28T23:38:58.915Z,100.00
2022-07-28T23:41:26.550Z,100.00
2022-07-28T23:43:53.387Z,100.00
2022-07-28T23:46:20.030Z,100.00
2022-07-28T23:48:46.626Z,100.00
2022-07-28T23:51:14.136Z,100.00
2022-07-28T23:53:43.834Z,100.00
2022-07-28T23:56:10.372Z,100.00
2022-07-28T23:58:37.021Z,100.00
